createdAt,value
2022-07-26T00:00:30.921Z,23.50
2022-07-26T00:02:57.901Z,23.50
2022-07-26T00:05:25.079Z,23.60
2022-07-26T00:08:10.580Z,23.60
2022-07-26T00:10:48.865Z,23.60
2022-07-26T00:13:19.971Z,23.60
2022-07-26T00:15:48.664Z,23.60
2022-07-26T00:18:17.106Z,23.60
2022-07-26T00:20:44.565Z,23.60
2022-07-26T00:23:11.634Z,23.50
2022-07-26T00:25:38.665Z,23.50
2022-07-26T00:28:06.066Z,23.40
2022-07-26T00:30:33.849Z,23.30
2022-07-26T00:33:00.889Z,23.20
2022-07-26T00:35:27.927Z,23.20
2022-07-26T00:37:54.981Z,23.30
2022-07-26T00:40:22.630Z,23.30
2022-07-26T00:42:49.762Z,23.30
2022-07-26T00:45:17.661Z,23.30
2022-07-26T00:47:45.649Z,23.30
2022-07-26T00:50:18.982Z,23.30
2022-07-26T00:52:49.906Z,23.40
2022-07-26T00:55:18.271Z,23.30
2022-07-26T00:57:45.896Z,23.30
2022-07-26T01:00:21.101Z,23.30
2022-07-26T01:02:48.551Z,23.30
2022-07-26T01:05:16.733Z,23.30
2022-07-26T01:07:44.855Z,23.30
2022-07-26T01:10:14.004Z,23.30
2022-07-26T01:12:43.014Z,23.30
2022-07-26T01:15:13.056Z,23.20
2022-07-26T01:17:42.956Z,23.20
2022-07-26T01:20:12.843Z,23.20
2022-07-26T01:22:40.625Z,23.20
2022-07-26T01:25:08.690Z,23.10
2022-07-26T01:27:39.328Z,23.20
2022-07-26T01:30:11.812Z,23.20
2022-07-26T01:32:39.368Z,23.20
2022-07-26T01:35:08.977Z,23.20
2022-07-26T01:37:36.115Z,23.20
2022-07-26T01:40:04.739Z,23.20
2022-07-26T01:42:34.176Z,23.20
2022-07-26T01:45:01.215Z,23.20
2022-07-26T01:47:28.194Z,23.20
2022-07-26T01:49:55.165Z,23.30
2022-07-26T01:52:22.121Z,23.20
2022-07-26T01:54:49.104Z,23.20
2022-07-26T01:57:16.044Z,23.20
2022-07-26T01:59:42.999Z,23.10
2022-07-26T02:02:10.198Z,23.10
2022-07-26T02:04:55.687Z,23.00
2022-07-26T02:07:22.641Z,23.00
2022-07-26T02:09:49.913Z,23.00
2022-07-26T02:12:16.871Z,23.10
2022-07-26T02:14:43.859Z,23.10
2022-07-26T02:17:11.506Z,23.10
2022-07-26T02:19:38.475Z,23.10
2022-07-26T02:22:06.134Z,23.10
2022-07-26T02:24:33.408Z,23.10
2022-07-26T02:27:02.377Z,23.10
2022-07-26T02:29:29.951Z,23.10
2022-07-26T02:31:57.598Z,23.00
2022-07-26T02:34:25.473Z,22.80
2022-07-26T02:36:52.543Z,22.80
2022-07-26T02:39:19.964Z,22.80
2022-07-26T02:41:47.468Z,22.70
2022-07-26T02:44:14.530Z,22.70
2022-07-26T02:46:41.557Z,22.60
2022-07-26T02:49:08.708Z,22.60
2022-07-26T02:51:35.733Z,22.60
2022-07-26T02:54:02.689Z,22.50
2022-07-26T02:56:29.925Z,22.50
2022-07-26T02:58:57.047Z,22.50
2022-07-26T03:01:24.207Z,22.40
2022-07-26T03:03:51.355Z,22.30
2022-07-26T03:06:19.876Z,22.20
2022-07-26T03:08:48.406Z,22.10
2022-07-26T03:11:16.070Z,21.90
2022-07-26T03:13:43.112Z,21.80
2022-07-26T03:16:10.730Z,21.40
2022-07-26T03:18:37.746Z,21.10
2022-07-26T03:21:04.947Z,20.90
2022-07-26T03:23:33.541Z,20.60
2022-07-26T03:26:02.376Z,20.30
2022-07-26T03:28:33.670Z,20.10
2022-07-26T03:31:01.260Z,20.10
2022-07-26T03:33:30.646Z,20.00
2022-07-26T03:35:57.687Z,20.00
2022-07-26T03:38:24.807Z,20.10
2022-07-26T03:40:52.005Z,20.20
2022-07-26T03:43:23.002Z,20.10
2022-07-26T03:45:51.217Z,20.10
2022-07-26T03:48:21.971Z,20.10
2022-07-26T03:50:49.156Z,20.00
2022-07-26T03:53:16.140Z,19.80
2022-07-26T03:56:02.221Z,19.60
2022-07-26T03:58:31.813Z,19.70
2022-07-26T04:00:58.778Z,19.60
2022-07-26T04:03:25.868Z,19.60
2022-07-26T04:05:52.903Z,19.60
2022-07-26T04:08:20.104Z,19.60
2022-07-26T04:10:53.437Z,19.60
2022-07-26T04:13:20.819Z,19.70
2022-07-26T04:15:47.807Z,19.70
2022-07-26T04:18:14.834Z,19.60
2022-07-26T04:20:42.831Z,19.70
2022-07-26T04:23:11.349Z,19.70
2022-07-26T04:25:41.704Z,19.70
2022-07-26T04:28:10.328Z,19.80
2022-07-26T04:30:38.954Z,19.80
2022-07-26T04:33:06.592Z,19.80
2022-07-26T04:35:35.069Z,19.80
2022-07-26T04:38:04.138Z,20.10
2022-07-26T04:40:33.697Z,20.20
2022-07-26T04:43:01.911Z,20.20
2022-07-26T04:45:30.184Z,20.20
2022-07-26T04:47:57.760Z,20.20
2022-07-26T04:50:25.636Z,20.00
2022-07-26T04:52:52.835Z,19.60
2022-07-26T04:55:21.465Z,19.40
2022-07-26T04:57:50.343Z,19.20
2022-07-26T05:00:24.266Z,19.10
2022-07-26T05:02:56.245Z,19.00
2022-07-26T05:05:25.511Z,19.00
2022-07-26T05:07:56.425Z,19.00
2022-07-26T05:10:32.545Z,18.90
2022-07-26T05:12:59.657Z,18.90
2022-07-26T05:15:32.992Z,18.90
2022-07-26T05:18:08.223Z,18.90
2022-07-26T05:20:39.395Z,19.00
2022-07-26T05:23:07.178Z,19.00
2022-07-26T05:25:34.465Z,19.00
2022-07-26T05:28:01.502Z,19.00
2022-07-26T05:30:28.656Z,19.10
2022-07-26T05:32:55.858Z,19.30
2022-07-26T05:35:22.987Z,19.40
2022-07-26T05:37:50.005Z,19.70
2022-07-26T05:40:17.132Z,19.70
2022-07-26T05:42:44.138Z,19.80
2022-07-26T05:45:11.620Z,19.90
2022-07-26T05:47:38.617Z,20.00
2022-07-26T05:50:07.157Z,20.10
2022-07-26T05:52:37.166Z,20.10
2022-07-26T05:55:04.682Z,20.30
2022-07-26T05:57:31.678Z,20.50
2022-07-26T05:59:58.754Z,20.50
2022-07-26T06:02:25.871Z,20.50
2022-07-26T06:04:52.932Z,20.60
2022-07-26T06:07:20.007Z,20.70
2022-07-26T06:09:47.109Z,20.80
2022-07-26T06:12:14.159Z,21.00
2022-07-26T06:14:41.306Z,21.20
2022-07-26T06:17:08.407Z,21.40
2022-07-26T06:19:36.085Z,21.40
2022-07-26T06:22:03.850Z,21.30
2022-07-26T06:24:31.530Z,21.40
2022-07-26T06:27:05.042Z,21.30
2022-07-26T06:29:34.038Z,21.30
2022-07-26T06:32:01.247Z,21.10
2022-07-26T06:34:28.830Z,21.00
2022-07-26T06:36:56.179Z,21.00
2022-07-26T06:39:23.551Z,21.00
2022-07-26T06:41:50.928Z,21.00
2022-07-26T06:44:18.155Z,21.00
2022-07-26T06:46:45.500Z,20.80
2022-07-26T06:49:13.541Z,20.70
2022-07-26T06:51:40.952Z,20.60
2022-07-26T06:54:08.694Z,20.50
2022-07-26T06:56:36.185Z,20.00
2022-07-26T06:59:09.031Z,19.50
2022-07-26T07:01:55.599Z,19.50
2022-07-26T07:04:23.984Z,19.50
2022-07-26T07:06:51.422Z,19.50
2022-07-26T07:09:20.092Z,19.60
2022-07-26T07:11:51.824Z,19.50
2022-07-26T07:14:26.004Z,19.50
2022-07-26T07:16:56.067Z,19.50
2022-07-26T07:19:24.097Z,19.60
2022-07-26T07:21:52.034Z,19.60
2022-07-26T07:24:20.263Z,19.70
2022-07-26T07:26:48.090Z,19.80
2022-07-26T07:29:17.485Z,19.80
2022-07-26T07:31:48.541Z,19.90
2022-07-26T07:34:22.958Z,20.00
2022-07-26T07:36:52.780Z,19.90
2022-07-26T07:39:20.499Z,19.90
2022-07-26T07:41:48.951Z,19.90
2022-07-26T07:44:16.818Z,20.00
2022-07-26T07:46:44.207Z,20.00
2022-07-26T07:49:12.326Z,20.00
2022-07-26T07:51:40.074Z,19.90
2022-07-26T07:54:07.437Z,19.80
2022-07-26T07:56:35.661Z,19.80
2022-07-26T07:59:03.018Z,19.90
2022-07-26T08:01:40.693Z,19.80
2022-07-26T08:04:09.666Z,19.70
2022-07-26T08:06:37.455Z,19.80
2022-07-26T08:09:09.416Z,19.80
2022-07-26T08:11:41.840Z,20.00
2022-07-26T08:14:09.989Z,19.90
2022-07-26T08:16:37.450Z,19.90
2022-07-26T08:19:05.087Z,19.80
2022-07-26T08:21:32.324Z,20.00
2022-07-26T08:26:45.659Z,19.90
2022-07-26T08:29:13.416Z,20.00
2022-07-26T08:31:41.587Z,19.90
2022-07-26T08:34:10.354Z,19.90
2022-07-26T08:36:41.960Z,20.10
2022-07-26T08:39:17.338Z,20.10
2022-07-26T08:41:44.942Z,20.00
2022-07-26T08:44:12.540Z,20.00
2022-07-26T08:46:43.207Z,20.10
2022-07-26T08:49:13.261Z,20.10
2022-07-26T08:51:44.956Z,20.10
2022-07-26T08:54:16.145Z,20.20
2022-07-26T08:56:53.000Z,20.10
2022-07-26T08:59:22.721Z,20.10
2022-07-26T09:01:57.454Z,20.30
2022-07-26T09:04:33.503Z,20.20
2022-07-26T09:07:09.339Z,20.20
2022-07-26T09:09:59.480Z,20.40
2022-07-26T09:12:29.024Z,20.60
2022-07-26T09:14:57.458Z,20.60
2022-07-26T09:17:38.014Z,20.40
2022-07-26T09:20:12.121Z,20.40
2022-07-26T09:23:08.034Z,20.60
2022-07-26T09:25:45.513Z,21.10
2022-07-26T09:28:29.631Z,21.00
2022-07-26T09:31:05.201Z,21.30
2022-07-26T09:33:51.356Z,21.60
2022-07-26T09:36:19.587Z,21.70
2022-07-26T09:38:50.756Z,21.90
2022-07-26T09:41:23.184Z,22.00
2022-07-26T09:43:54.164Z,22.00
2022-07-26T09:46:26.250Z,22.30
2022-07-26T09:49:13.652Z,22.50
2022-07-26T09:51:47.871Z,22.70
2022-07-26T09:54:35.305Z,22.50
2022-07-26T09:57:04.224Z,22.60
2022-07-26T09:59:31.717Z,22.70
2022-07-26T10:02:01.104Z,22.90
2022-07-26T10:04:28.397Z,23.10
2022-07-26T10:06:58.266Z,23.20
2022-07-26T10:09:48.671Z,23.00
2022-07-26T10:12:17.791Z,22.80
2022-07-26T10:14:49.505Z,23.00
2022-07-26T10:17:31.398Z,23.10
2022-07-26T10:20:09.355Z,23.00
2022-07-26T10:22:47.944Z,22.80
2022-07-26T10:25:18.306Z,22.70
2022-07-26T10:27:54.424Z,22.50
2022-07-26T10:30:33.624Z,22.70
2022-07-26T10:33:13.514Z,22.80
2022-07-26T10:35:43.761Z,23.00
2022-07-26T10:38:12.076Z,23.40
2022-07-26T10:40:57.434Z,23.60
2022-07-26T10:43:42.086Z,23.50
2022-07-26T10:46:19.258Z,23.40
2022-07-26T10:49:18.848Z,23.30
2022-07-26T10:51:46.064Z,23.10
2022-07-26T10:54:15.845Z,23.30
2022-07-26T10:56:43.415Z,23.20
2022-07-26T10:59:10.781Z,23.10
2022-07-26T11:01:43.587Z,23.10
2022-07-26T11:04:23.991Z,23.20
2022-07-26T11:06:52.066Z,23.10
2022-07-26T11:09:21.151Z,23.20
2022-07-26T11:11:52.557Z,23.30
2022-07-26T11:14:19.810Z,23.10
2022-07-26T11:16:52.450Z,23.20
2022-07-26T11:19:25.974Z,23.50
2022-07-26T11:22:01.210Z,23.60
2022-07-26T11:24:29.579Z,23.90
2022-07-26T11:27:03.622Z,23.90
2022-07-26T11:29:38.410Z,23.90
2022-07-26T11:32:25.474Z,24.00
2022-07-26T11:35:05.073Z,24.20
2022-07-26T11:37:32.451Z,24.30
2022-07-26T11:39:59.676Z,24.50
2022-07-26T11:42:27.160Z,24.40
2022-07-26T11:44:54.649Z,24.30
2022-07-26T11:47:26.350Z,24.40
2022-07-26T11:50:13.864Z,24.50
2022-07-26T11:52:41.946Z,24.20
2022-07-26T11:55:09.786Z,24.20
2022-07-26T11:57:37.503Z,24.40
2022-07-26T12:00:06.170Z,24.30
2022-07-26T12:02:33.545Z,24.50
2022-07-26T12:05:33.491Z,24.90
2022-07-26T12:08:05.113Z,25.20
2022-07-26T12:10:33.073Z,25.50
2022-07-26T12:13:16.629Z,25.80
2022-07-26T12:15:53.928Z,26.10
2022-07-26T12:18:29.617Z,26.30
2022-07-26T12:21:08.059Z,26.20
2022-07-26T12:23:49.417Z,26.20
2022-07-26T12:26:23.378Z,25.90
2022-07-26T12:28:51.101Z,25.60
2022-07-26T12:31:29.023Z,25.60
2022-07-26T12:33:57.112Z,25.50
2022-07-26T12:36:27.627Z,25.50
2022-07-26T12:39:00.460Z,25.60
2022-07-26T12:41:40.411Z,25.70
2022-07-26T12:44:12.704Z,25.80
2022-07-26T12:46:40.384Z,26.00
2022-07-26T12:49:07.728Z,25.70
2022-07-26T12:51:35.041Z,25.50
2022-07-26T12:54:06.978Z,25.40
2022-07-26T12:56:35.298Z,25.40
2022-07-26T12:59:02.526Z,25.30
2022-07-26T13:01:32.116Z,25.30
2022-07-26T13:03:59.990Z,25.30
2022-07-26T13:06:27.296Z,25.40
2022-07-26T13:08:54.507Z,25.40
2022-07-26T13:11:21.745Z,25.30
2022-07-26T13:13:49.699Z,25.40
2022-07-26T13:16:17.139Z,25.40
2022-07-26T13:18:44.663Z,25.30
2022-07-26T13:21:12.181Z,25.60
2022-07-26T13:23:39.523Z,25.80
2022-07-26T13:26:09.253Z,25.80
2022-07-26T13:28:37.965Z,26.00
2022-07-26T13:31:05.755Z,25.90
2022-07-26T13:33:33.775Z,25.80
2022-07-26T13:36:02.458Z,25.70
2022-07-26T13:38:33.563Z,25.90
2022-07-26T13:41:05.316Z,25.70
2022-07-26T13:43:32.702Z,25.80
2022-07-26T13:46:00.182Z,25.80
2022-07-26T13:48:27.636Z,25.80
2022-07-26T13:50:55.542Z,25.80
2022-07-26T13:53:24.553Z,25.80
2022-07-26T13:55:52.176Z,25.80
2022-07-26T13:58:21.770Z,25.60
2022-07-26T14:00:49.878Z,25.60
2022-07-26T14:03:17.496Z,25.70
2022-07-26T14:05:44.735Z,25.70
2022-07-26T14:08:12.445Z,25.40
2022-07-26T14:10:41.014Z,25.30
2022-07-26T14:13:09.701Z,25.30
2022-07-26T14:15:37.192Z,25.20
2022-07-26T14:18:04.682Z,25.20
2022-07-26T14:20:32.045Z,25.20
2022-07-26T14:23:00.505Z,25.30
2022-07-26T14:25:28.675Z,25.30
2022-07-26T14:27:56.284Z,25.40
2022-07-26T14:30:24.247Z,25.30
2022-07-26T14:32:51.716Z,25.30
2022-07-26T14:35:19.004Z,25.40
2022-07-26T14:37:46.536Z,25.30
2022-07-26T14:40:17.425Z,25.30
2022-07-26T14:42:46.345Z,25.10
2022-07-26T14:45:14.821Z,25.10
2022-07-26T14:47:43.237Z,25.20
2022-07-26T14:50:12.270Z,25.20
2022-07-26T14:52:47.673Z,25.20
2022-07-26T14:55:20.333Z,25.20
2022-07-26T14:57:50.436Z,25.00
2022-07-26T15:00:18.883Z,25.00
2022-07-26T15:02:49.110Z,25.00
2022-07-26T15:05:17.918Z,24.90
2022-07-26T15:07:46.372Z,24.90
2022-07-26T15:10:15.177Z,25.10
2022-07-26T15:12:44.321Z,25.10
2022-07-26T15:15:12.418Z,25.10
2022-07-26T15:17:39.918Z,24.90
2022-07-26T15:20:08.121Z,24.90
2022-07-26T15:22:35.948Z,25.00
2022-07-26T15:25:04.156Z,24.90
2022-07-26T15:27:31.641Z,24.80
2022-07-26T15:30:04.126Z,24.70
2022-07-26T15:32:32.238Z,24.60
2022-07-26T15:34:59.729Z,24.70
2022-07-26T15:37:27.825Z,24.70
2022-07-26T15:39:55.054Z,24.70
2022-07-26T15:42:22.668Z,24.80
2022-07-26T15:44:51.042Z,24.80
2022-07-26T15:47:36.921Z,24.90
2022-07-26T15:50:08.987Z,25.10
2022-07-26T15:52:39.227Z,25.20
2022-07-26T15:55:08.891Z,25.20
2022-07-26T15:57:36.822Z,25.00
2022-07-26T16:00:11.143Z,25.00
2022-07-26T16:02:40.343Z,24.80
2022-07-26T16:05:10.082Z,24.90
2022-07-26T16:07:38.541Z,24.80
2022-07-26T16:10:06.841Z,24.70
2022-07-26T16:12:34.316Z,24.80
2022-07-26T16:15:01.451Z,24.80
2022-07-26T16:17:29.163Z,24.80
2022-07-26T16:19:56.661Z,24.90
2022-07-26T16:22:24.131Z,25.00
2022-07-26T16:24:51.737Z,25.20
2022-07-26T16:27:19.101Z,25.30
2022-07-26T16:29:50.357Z,25.50
2022-07-26T16:32:21.481Z,25.40
2022-07-26T16:34:48.876Z,25.00
2022-07-26T16:37:18.142Z,24.90
2022-07-26T16:39:49.445Z,24.90
2022-07-26T16:42:16.842Z,24.80
2022-07-26T16:44:44.098Z,24.60
2022-07-26T16:47:11.268Z,24.50
2022-07-26T16:49:38.689Z,24.50
2022-07-26T16:52:06.589Z,24.50
2022-07-26T16:54:34.135Z,24.40
2022-07-26T16:57:01.649Z,24.20
2022-07-26T16:59:29.015Z,24.10
2022-07-26T17:01:56.412Z,24.00
2022-07-26T17:04:28.995Z,23.80
2022-07-26T17:07:22.408Z,23.60
2022-07-26T17:09:43.523Z,23.60
2022-07-26T17:12:10.885Z,23.60
2022-07-26T17:14:38.239Z,23.60
2022-07-26T17:17:05.595Z,23.50
2022-07-26T17:19:32.850Z,23.40
2022-07-26T17:22:00.095Z,23.20
2022-07-26T17:24:27.331Z,22.70
2022-07-26T17:26:55.433Z,22.40
2022-07-26T17:29:22.655Z,22.10
2022-07-26T17:31:50.517Z,21.70
2022-07-26T17:34:19.206Z,21.40
2022-07-26T17:36:46.730Z,21.10
2022-07-26T17:39:14.190Z,21.00
2022-07-26T17:41:47.702Z,20.80
2022-07-26T17:44:15.241Z,20.50
2022-07-26T17:46:42.920Z,20.50
2022-07-26T17:49:10.746Z,20.50
2022-07-26T17:51:38.772Z,20.50
2022-07-26T17:54:06.491Z,20.50
2022-07-26T17:56:34.324Z,20.50
2022-07-26T17:59:01.937Z,20.50
2022-07-26T18:01:29.488Z,20.50
2022-07-26T18:03:56.901Z,20.60
2022-07-26T18:06:24.256Z,20.70
2022-07-26T18:08:51.618Z,20.70
2022-07-26T18:11:18.983Z,20.70
2022-07-26T18:13:46.474Z,20.70
2022-07-26T18:16:14.398Z,20.60
2022-07-26T18:18:41.939Z,20.60
2022-07-26T18:21:09.401Z,20.70
2022-07-26T18:23:37.380Z,20.70
2022-07-26T18:26:05.709Z,20.50
2022-07-26T18:28:33.045Z,20.50
2022-07-26T18:31:00.478Z,20.40
2022-07-26T18:33:27.799Z,20.40
2022-07-26T18:36:01.021Z,20.30
2022-07-26T18:38:28.625Z,20.20
2022-07-26T18:40:56.586Z,20.10
2022-07-26T18:43:23.955Z,20.00
2022-07-26T18:45:51.666Z,20.00
2022-07-26T18:48:18.926Z,19.90
2022-07-26T18:50:47.017Z,19.70
2022-07-26T18:53:14.474Z,19.70
2022-07-26T18:55:41.848Z,19.60
2022-07-26T18:58:09.366Z,19.60
2022-07-26T19:00:37.049Z,19.40
2022-07-26T19:03:04.899Z,19.30
2022-07-26T19:05:35.241Z,19.20
2022-07-26T19:08:04.291Z,19.30
2022-07-26T19:10:32.133Z,19.30
2022-07-26T19:12:59.297Z,19.20
2022-07-26T19:15:26.638Z,19.00
2022-07-26T19:17:54.480Z,18.90
2022-07-26T19:20:22.065Z,18.90
2022-07-26T19:22:51.019Z,18.80
2022-07-26T19:25:21.726Z,18.70
2022-07-26T19:27:48.972Z,18.80
2022-07-26T19:30:16.213Z,18.80
2022-07-26T19:32:43.562Z,18.70
2022-07-26T19:35:10.854Z,18.50
2022-07-26T19:37:38.213Z,18.50
2022-07-26T19:40:06.632Z,18.30
2022-07-26T19:42:33.980Z,18.20
2022-07-26T19:45:01.339Z,18.00
2022-07-26T19:47:29.901Z,18.00
2022-07-26T19:49:57.774Z,18.00
2022-07-26T19:52:25.121Z,17.90
2022-07-26T19:54:53.089Z,17.90
2022-07-26T19:57:20.801Z,17.90
2022-07-26T19:59:48.420Z,17.80
2022-07-26T20:13:35.311Z,17.70
2022-07-26T20:16:04.699Z,18.00
2022-07-26T20:18:33.058Z,17.90
2022-07-26T20:21:00.130Z,17.80
2022-07-26T20:23:28.811Z,17.70
2022-07-26T20:25:55.901Z,17.80
2022-07-26T20:28:22.938Z,17.70
2022-07-26T20:30:51.704Z,17.70
2022-07-26T20:33:19.230Z,17.70
2022-07-26T20:35:48.413Z,17.70
2022-07-26T20:38:19.663Z,17.60
2022-07-26T20:40:47.385Z,17.60
2022-07-26T20:43:14.615Z,17.60
2022-07-26T20:45:41.612Z,17.50
2022-07-26T20:48:08.892Z,17.40
2022-07-26T20:50:36.555Z,17.40
2022-07-26T20:53:04.185Z,17.50
2022-07-26T20:55:31.327Z,17.30
2022-07-26T20:57:58.381Z,17.30
2022-07-26T21:00:26.485Z,17.30
2022-07-26T21:02:54.001Z,17.20
2022-07-26T21:05:21.138Z,17.30
2022-07-26T21:07:53.923Z,17.20
2022-07-26T21:10:27.047Z,17.20
2022-07-26T21:12:57.146Z,17.10
2022-07-26T21:15:24.370Z,17.10
2022-07-26T21:17:52.521Z,17.10
2022-07-26T21:20:20.657Z,17.20
2022-07-26T21:22:48.729Z,17.10
2022-07-26T21:25:15.832Z,17.00
2022-07-26T21:27:43.034Z,17.10
2022-07-26T21:30:10.698Z,17.10
2022-07-26T21:32:37.844Z,17.10
2022-07-26T21:35:05.607Z,17.20
2022-07-26T21:37:32.692Z,17.30
2022-07-26T21:40:00.727Z,17.40
2022-07-26T21:42:28.234Z,17.50
2022-07-26T21:44:55.196Z,17.50
2022-07-26T21:47:22.256Z,17.60
2022-07-26T21:49:49.273Z,17.70
2022-07-26T21:52:16.269Z,17.70
2022-07-26T21:54:43.200Z,17.80
2022-07-26T21:57:10.272Z,17.80
2022-07-26T21:59:37.384Z,17.80
2022-07-26T22:02:04.478Z,17.80
2022-07-26T22:04:31.507Z,17.80
2022-07-26T22:06:58.629Z,17.70
2022-07-26T22:09:25.697Z,17.70
2022-07-26T22:11:53.389Z,17.60
2022-07-26T22:14:21.342Z,17.60
2022-07-26T22:16:49.489Z,17.40
2022-07-26T22:19:16.606Z,17.30
2022-07-26T22:21:43.828Z,17.10
2022-07-26T22:24:11.056Z,17.10
2022-07-26T22:26:38.114Z,17.10
2022-07-26T22:29:05.099Z,17.10
2022-07-26T22:31:32.383Z,17.20
2022-07-26T22:33:59.356Z,17.20
2022-07-26T22:36:26.385Z,17.20
2022-07-26T22:38:53.525Z,17.20
2022-07-26T22:41:20.484Z,17.20
2022-07-26T22:43:47.513Z,17.20
2022-07-26T22:46:14.531Z,17.20
2022-07-26T22:48:44.534Z,17.10
2022-07-26T22:51:14.840Z,17.10
2022-07-26T22:53:42.416Z,17.10
2022-07-26T22:56:09.424Z,17.10
2022-07-26T22:58:38.144Z,17.00
2022-07-26T23:01:05.757Z,17.00
2022-07-26T23:03:32.812Z,17.00
2022-07-26T23:06:02.829Z,17.00
2022-07-26T23:08:47.924Z,16.90
2022-07-26T23:11:15.063Z,16.80
2022-07-26T23:13:42.027Z,16.80
2022-07-26T23:16:09.036Z,16.70
2022-07-26T23:18:36.598Z,16.70
2022-07-26T23:21:04.260Z,16.70
2022-07-26T23:23:31.891Z,16.70
2022-07-26T23:26:00.148Z,16.70
2022-07-26T23:28:35.541Z,16.70
2022-07-26T23:31:10.317Z,16.60
2022-07-26T23:33:53.076Z,16.60
2022-07-26T23:36:23.901Z,16.60
2022-07-26T23:38:51.270Z,16.50
2022-07-26T23:41:19.342Z,16.40
2022-07-26T23:43:46.358Z,16.30
2022-07-26T23:46:13.656Z,16.20
2022-07-26T23:48:40.803Z,16.20
2022-07-26T23:51:08.223Z,16.10
2022-07-26T23:53:35.279Z,16.10
2022-07-26T23:56:02.542Z,16.00
2022-07-26T23:58:29.571Z,16.00
